createdAt,value
2023-03-19T00:00:53.560Z,8.15
2023-03-19T00:03:20.149Z,11.65
2023-03-19T00:05:53.697Z,8.40
2023-03-19T00:08:20.389Z,10.45
2023-03-19T00:10:54.377Z,6.55
2023-03-19T00:13:23.756Z,11.63
2023-03-19T00:15:50.488Z,7.28
2023-03-19T00:18:17.014Z,8.00
2023-03-19T00:20:43.757Z,5.22
2023-03-19T00:23:10.353Z,8.35
2023-03-19T00:25:37.206Z,6.45
2023-03-19T00:28:03.790Z,6.18
2023-03-19T00:30:30.804Z,10.93
2023-03-19T00:32:57.513Z,8.00
2023-03-19T00:35:27.738Z,13.35
2023-03-19T00:37:55.291Z,9.10
2023-03-19T00:40:22.021Z,8.57
2023-03-19T00:42:48.548Z,12.18
2023-03-19T00:45:15.245Z,6.72
2023-03-19T00:47:43.898Z,9.18
2023-03-19T00:50:12.472Z,8.77
2023-03-19T00:52:39.037Z,7.88
2023-03-19T00:55:05.804Z,9.57
2023-03-19T00:57:32.463Z,8.85
2023-03-19T00:59:58.917Z,10.95
2023-03-19T01:02:28.990Z,10.45
2023-03-19T01:04:55.795Z,8.57
2023-03-19T01:07:22.623Z,12.63
2023-03-19T01:09:49.110Z,8.13
2023-03-19T01:12:25.138Z,8.15
2023-03-19T01:14:51.604Z,10.07
2023-03-19T01:17:18.079Z,6.68
2023-03-19T01:19:44.560Z,7.75
2023-03-19T01:22:11.200Z,8.70
2023-03-19T01:24:37.670Z,6.55
2023-03-19T01:27:04.345Z,7.82
2023-03-19T01:29:31.949Z,8.57
2023-03-19T01:32:01.615Z,7.65
2023-03-19T01:34:28.125Z,6.40
2023-03-19T01:36:55.187Z,5.95
2023-03-19T01:39:21.682Z,9.50
2023-03-19T01:41:48.255Z,5.65
2023-03-19T01:44:33.006Z,5.90
2023-03-19T01:47:06.500Z,7.40
2023-03-19T01:49:34.461Z,5.30
2023-03-19T01:52:03.372Z,8.10
2023-03-19T01:54:32.475Z,6.80
2023-03-19T01:57:03.392Z,7.60
2023-03-19T01:59:33.971Z,7.15
2023-03-19T02:02:00.432Z,10.60
2023-03-19T02:04:28.999Z,7.50
2023-03-19T02:06:56.833Z,4.45
2023-03-19T02:09:29.030Z,4.18
2023-03-19T02:12:01.863Z,6.70
2023-03-19T02:14:28.625Z,7.35
2023-03-19T02:16:59.135Z,6.75
2023-03-19T02:19:48.406Z,4.35
2023-03-19T02:22:18.790Z,6.72
2023-03-19T02:25:08.439Z,6.78
2023-03-19T02:27:34.989Z,7.32
2023-03-19T02:30:18.855Z,6.15
2023-03-19T02:32:51.374Z,7.20
2023-03-19T02:35:21.358Z,4.30
2023-03-19T02:37:48.038Z,6.30
2023-03-19T02:40:27.060Z,7.35
2023-03-19T02:42:53.580Z,5.88
2023-03-19T02:45:21.306Z,5.47
2023-03-19T02:47:47.780Z,6.18
2023-03-19T02:50:14.545Z,8.30
2023-03-19T02:52:41.182Z,6.03
2023-03-19T02:55:11.523Z,6.70
2023-03-19T02:57:41.270Z,6.45
2023-03-19T03:00:12.282Z,8.18
2023-03-19T03:02:44.559Z,8.02
2023-03-19T03:05:11.062Z,5.20
2023-03-19T03:07:37.718Z,7.63
2023-03-19T03:10:04.358Z,7.93
2023-03-19T03:12:31.643Z,10.65
2023-03-19T03:14:58.126Z,7.18
2023-03-19T03:17:24.851Z,7.57
2023-03-19T03:19:51.602Z,7.28
2023-03-19T03:22:18.097Z,5.03
2023-03-19T03:24:44.663Z,6.53
2023-03-19T03:27:11.668Z,5.78
2023-03-19T03:29:38.144Z,7.40
2023-03-19T03:32:04.892Z,6.07
2023-03-19T03:34:31.374Z,8.05
2023-03-19T03:36:57.888Z,10.02
2023-03-19T03:39:24.313Z,7.10
2023-03-19T03:41:51.610Z,11.52
2023-03-19T03:44:18.178Z,7.50
2023-03-19T03:46:44.661Z,8.38
2023-03-19T03:49:11.353Z,11.95
2023-03-19T03:51:37.826Z,8.30
2023-03-19T03:54:04.370Z,7.50
2023-03-19T03:56:31.434Z,6.63
2023-03-19T03:58:57.956Z,6.45
2023-03-19T04:01:24.600Z,8.85
2023-03-19T04:03:51.105Z,10.50
2023-03-19T04:06:20.962Z,5.93
2023-03-19T04:08:47.802Z,6.82
2023-03-19T04:11:15.078Z,7.43
2023-03-19T04:13:42.219Z,9.88
2023-03-19T04:16:10.088Z,6.22
2023-03-19T04:18:37.633Z,9.15
2023-03-19T04:21:07.811Z,6.55
2023-03-19T04:23:34.646Z,6.32
2023-03-19T04:26:07.059Z,7.03
2023-03-19T04:28:34.609Z,8.68
2023-03-19T04:31:12.539Z,7.38
2023-03-19T04:33:39.131Z,7.75
2023-03-19T04:36:06.042Z,6.55
2023-03-19T04:38:32.870Z,7.72
2023-03-19T04:40:59.555Z,5.82
2023-03-19T04:43:26.155Z,7.57
2023-03-19T04:45:52.805Z,6.18
2023-03-19T04:48:19.451Z,6.05
2023-03-19T04:50:48.730Z,6.63
2023-03-19T04:53:15.300Z,8.98
2023-03-19T04:55:41.752Z,9.27
2023-03-19T04:58:09.184Z,4.70
2023-03-19T05:00:36.297Z,5.80
2023-03-19T05:03:02.897Z,8.43
2023-03-19T05:05:29.650Z,5.45
2023-03-19T05:07:57.363Z,7.03
2023-03-19T05:10:26.932Z,9.90
2023-03-19T05:12:53.397Z,5.50
2023-03-19T05:15:19.847Z,6.75
2023-03-19T05:17:46.351Z,7.45
2023-03-19T05:20:16.427Z,7.25
2023-03-19T05:22:42.873Z,10.27
2023-03-19T05:25:09.721Z,10.85
2023-03-19T05:27:36.274Z,7.78
2023-03-19T05:30:03.013Z,10.18
2023-03-19T05:32:29.551Z,11.73
2023-03-19T05:34:56.092Z,10.75
2023-03-19T05:37:22.569Z,7.47
2023-03-19T05:39:49.247Z,8.63
2023-03-19T05:42:16.382Z,9.48
2023-03-19T05:44:43.131Z,9.85
2023-03-19T05:47:11.460Z,6.85
2023-03-19T05:49:38.072Z,9.43
2023-03-19T05:52:04.980Z,12.18
2023-03-19T05:54:31.458Z,7.85
2023-03-19T05:56:57.992Z,5.90
2023-03-19T05:59:24.634Z,9.35
2023-03-19T06:01:51.224Z,7.57
2023-03-19T06:04:17.757Z,9.55
2023-03-19T06:06:44.311Z,6.32
2023-03-19T06:09:10.761Z,4.60
2023-03-19T06:11:39.562Z,5.63
2023-03-19T06:14:06.827Z,5.68
2023-03-19T06:16:33.354Z,7.30
2023-03-19T06:19:00.134Z,7.07
2023-03-19T06:21:29.603Z,8.25
2023-03-19T06:23:56.673Z,7.93
2023-03-19T06:26:24.038Z,8.15
2023-03-19T06:28:50.980Z,10.65
2023-03-19T06:31:17.547Z,7.32
2023-03-19T06:33:44.152Z,9.63
2023-03-19T06:36:10.945Z,11.85
2023-03-19T06:38:37.846Z,9.02
2023-03-19T06:41:04.580Z,10.25
2023-03-19T06:43:31.897Z,9.38
2023-03-19T06:45:58.449Z,9.50
2023-03-19T06:48:25.091Z,7.05
2023-03-19T06:50:51.562Z,8.85
2023-03-19T06:53:18.038Z,10.70
2023-03-19T06:55:48.118Z,8.93
2023-03-19T06:58:14.679Z,8.38
2023-03-19T07:00:44.276Z,13.32
2023-03-19T07:03:11.315Z,7.25
2023-03-19T07:05:37.765Z,10.93
2023-03-19T07:08:04.503Z,6.93
2023-03-19T07:10:31.022Z,6.75
2023-03-19T07:12:57.520Z,6.68
2023-03-19T07:15:24.045Z,8.98
2023-03-19T07:17:53.315Z,8.15
2023-03-19T07:20:19.993Z,6.70
2023-03-19T07:22:46.437Z,6.88
2023-03-19T07:25:12.979Z,8.38
2023-03-19T07:27:39.444Z,7.28
2023-03-19T07:30:06.776Z,8.73
2023-03-19T07:32:33.292Z,8.05
2023-03-19T07:34:59.810Z,5.50
2023-03-19T07:37:28.893Z,4.55
2023-03-19T07:39:55.563Z,8.43
2023-03-19T07:42:22.064Z,8.05
2023-03-19T07:44:48.500Z,12.75
2023-03-19T07:47:26.399Z,10.98
2023-03-19T07:49:55.704Z,10.13
2023-03-19T07:52:22.245Z,12.60
2023-03-19T07:54:50.095Z,9.60
2023-03-19T07:57:16.606Z,8.75
2023-03-19T07:59:43.115Z,13.50
2023-03-19T08:02:13.306Z,7.05
2023-03-19T08:04:40.542Z,9.10
2023-03-19T08:07:08.075Z,9.75
2023-03-19T08:09:34.625Z,10.68
2023-03-19T08:12:01.167Z,17.38
2023-03-19T08:14:27.697Z,11.13
2023-03-19T08:16:54.247Z,12.68
2023-03-19T08:19:20.934Z,6.10
2023-03-19T08:21:47.484Z,19.90
2023-03-19T08:24:14.064Z,23.27
2023-03-19T08:26:40.646Z,17.20
2023-03-19T08:29:07.293Z,11.90
2023-03-19T08:31:33.842Z,10.57
2023-03-19T08:34:02.710Z,11.48
2023-03-19T08:36:29.214Z,9.90
2023-03-19T08:38:55.812Z,14.38
2023-03-19T08:41:22.658Z,12.85
2023-03-19T08:43:49.509Z,14.23
2023-03-19T08:46:16.454Z,8.73
2023-03-19T08:48:43.292Z,9.85
2023-03-19T08:51:10.656Z,8.93
2023-03-19T08:53:38.694Z,7.80
2023-03-19T08:56:07.740Z,9.57
2023-03-19T08:58:34.629Z,9.45
2023-03-19T09:01:03.533Z,7.85
2023-03-19T09:03:31.115Z,8.68
2023-03-19T09:06:02.370Z,8.25
2023-03-19T09:08:31.029Z,9.52
2023-03-19T09:11:01.793Z,8.95
2023-03-19T09:13:28.355Z,10.48
2023-03-19T09:15:55.290Z,7.40
2023-03-19T09:18:24.037Z,6.75
2023-03-19T09:20:50.529Z,8.88
2023-03-19T09:23:17.121Z,5.70
2023-03-19T09:25:43.670Z,7.93
2023-03-19T09:28:10.633Z,9.98
2023-03-19T09:30:37.137Z,7.13
2023-03-19T09:33:04.382Z,8.13
2023-03-19T09:35:32.931Z,7.65
2023-03-19T09:38:00.806Z,6.95
2023-03-19T09:40:46.296Z,6.05
2023-03-19T09:43:31.880Z,6.75
2023-03-19T09:46:01.178Z,9.57
2023-03-19T09:48:40.796Z,7.13
2023-03-19T09:51:12.660Z,7.30
2023-03-19T09:53:57.404Z,10.45
2023-03-19T09:56:25.820Z,10.23
2023-03-19T09:58:52.574Z,11.05
2023-03-19T10:01:49.268Z,7.15
2023-03-19T10:04:18.876Z,10.05
2023-03-19T10:06:45.498Z,7.22
2023-03-19T10:09:23.372Z,7.43
2023-03-19T10:12:13.718Z,10.10
2023-03-19T10:15:15.933Z,7.38
2023-03-19T10:18:05.509Z,6.75
2023-03-19T10:20:41.178Z,6.35
2023-03-19T10:23:28.767Z,6.05
2023-03-19T10:25:58.533Z,5.05
2023-03-19T10:28:27.832Z,4.32
2023-03-19T10:31:12.778Z,4.15
2023-03-19T10:33:42.664Z,6.13
2023-03-19T10:36:14.727Z,6.60
2023-03-19T10:38:43.378Z,6.85
2023-03-19T10:41:29.429Z,5.00
2023-03-19T10:44:05.805Z,3.13
2023-03-19T10:46:40.278Z,3.25
2023-03-19T10:49:14.304Z,4.25
2023-03-19T10:51:45.441Z,4.60
2023-03-19T10:54:21.833Z,5.07
2023-03-19T10:56:49.905Z,4.15
2023-03-19T10:59:30.727Z,5.97
2023-03-19T11:01:59.800Z,4.32
2023-03-19T11:04:28.792Z,5.88
2023-03-19T11:07:13.707Z,4.00
2023-03-19T11:09:47.434Z,4.88
2023-03-19T11:12:23.023Z,6.82
2023-03-19T11:14:52.231Z,7.70
2023-03-19T11:17:37.740Z,5.90
2023-03-19T11:20:27.375Z,7.18
2023-03-19T11:22:56.538Z,6.97
2023-03-19T11:25:36.011Z,6.57
2023-03-19T11:28:08.348Z,9.15
2023-03-19T11:31:05.888Z,5.93
2023-03-19T11:34:06.519Z,5.65
2023-03-19T11:36:38.866Z,5.47
2023-03-19T11:39:17.387Z,4.32
2023-03-19T11:41:58.782Z,7.57
2023-03-19T11:44:58.165Z,5.22
2023-03-19T11:47:28.204Z,6.82
2023-03-19T11:50:31.919Z,6.35
2023-03-19T11:53:16.921Z,5.57
2023-03-19T11:56:05.245Z,5.63
2023-03-19T11:58:53.655Z,5.28
2023-03-19T12:01:46.843Z,7.47
2023-03-19T12:04:50.388Z,8.32
2023-03-19T12:07:52.335Z,4.10
2023-03-19T12:10:46.358Z,7.45
2023-03-19T12:13:22.323Z,4.90
2023-03-19T12:16:01.822Z,4.65
2023-03-19T12:19:02.308Z,4.82
2023-03-19T12:21:41.258Z,4.93
2023-03-19T12:24:23.814Z,3.72
2023-03-19T12:26:53.302Z,4.93
2023-03-19T12:29:44.844Z,5.85
2023-03-19T12:32:30.330Z,6.07
2023-03-19T12:35:02.241Z,4.43
2023-03-19T12:40:29.577Z,6.95
2023-03-19T12:42:59.312Z,4.47
2023-03-19T12:45:49.782Z,5.70
2023-03-19T12:48:28.659Z,4.75
2023-03-19T12:50:58.886Z,8.25
2023-03-19T12:53:43.472Z,4.20
2023-03-19T12:56:17.637Z,3.92
2023-03-19T12:58:56.263Z,8.23
2023-03-19T13:01:29.542Z,4.28
2023-03-19T13:04:33.838Z,6.50
2023-03-19T13:07:08.746Z,4.72
2023-03-19T13:09:49.602Z,4.50
2023-03-19T13:12:29.159Z,4.97
2023-03-19T13:15:11.947Z,7.28
2023-03-19T13:17:57.909Z,4.57
2023-03-19T13:20:39.304Z,4.65
2023-03-19T13:23:09.706Z,5.60
2023-03-19T13:25:48.317Z,3.05
2023-03-19T13:28:29.110Z,5.05
2023-03-19T13:31:08.487Z,4.47
2023-03-19T13:33:37.526Z,5.45
2023-03-19T13:36:15.003Z,5.72
2023-03-19T13:38:47.080Z,6.32
2023-03-19T13:41:35.352Z,7.25
2023-03-19T13:44:32.579Z,5.32
2023-03-19T13:47:23.765Z,4.50
2023-03-19T13:50:10.786Z,4.97
2023-03-19T13:52:48.229Z,3.90
2023-03-19T13:55:52.776Z,3.95
2023-03-19T13:58:41.501Z,3.22
2023-03-19T14:01:26.960Z,2.33
2023-03-19T14:04:17.618Z,1.80
2023-03-19T14:06:56.672Z,1.45
2023-03-19T14:09:59.982Z,1.58
2023-03-19T14:12:36.179Z,2.40
2023-03-19T14:15:09.250Z,5.97
2023-03-19T14:17:42.578Z,1.80
2023-03-19T14:20:12.877Z,2.85
2023-03-19T14:23:09.001Z,3.65
2023-03-19T14:26:23.079Z,1.98
2023-03-19T14:28:57.832Z,5.28
2023-03-19T14:31:27.286Z,3.88
2023-03-19T14:34:06.463Z,3.25
2023-03-19T14:36:38.207Z,2.83
2023-03-19T14:39:09.441Z,2.60
2023-03-19T14:41:43.465Z,1.85
2023-03-19T14:44:28.668Z,3.55
2023-03-19T14:47:42.490Z,2.20
2023-03-19T14:50:53.971Z,3.67
2023-03-19T14:53:37.234Z,1.77
2023-03-19T14:56:26.531Z,5.28
2023-03-19T14:58:55.363Z,4.43
2023-03-19T15:01:25.013Z,2.95
2023-03-19T15:04:03.992Z,3.70
2023-03-19T15:06:35.047Z,3.45
2023-03-19T15:09:02.563Z,3.03
2023-03-19T15:11:55.420Z,1.92
2023-03-19T15:14:57.448Z,3.03
2023-03-19T15:17:27.376Z,5.40
2023-03-19T15:19:55.740Z,2.72
2023-03-19T15:22:31.492Z,2.25
2023-03-19T15:25:14.158Z,4.25
2023-03-19T15:27:42.331Z,4.15
2023-03-19T15:30:23.215Z,4.60
2023-03-19T15:33:03.787Z,7.57
2023-03-19T15:35:36.301Z,3.63
2023-03-19T15:38:08.960Z,7.38
2023-03-19T15:40:37.041Z,3.55
2023-03-19T15:43:04.073Z,1.80
2023-03-19T15:45:35.615Z,1.63
2023-03-19T15:48:34.889Z,1.42
2023-03-19T15:51:04.211Z,2.55
2023-03-19T15:53:34.213Z,2.50
2023-03-19T15:56:02.708Z,1.30
2023-03-19T15:58:38.386Z,1.67
2023-03-19T16:01:08.233Z,1.95
2023-03-19T16:03:41.514Z,2.75
2023-03-19T16:06:17.275Z,1.33
2023-03-19T16:08:55.416Z,1.88
2023-03-19T16:11:28.045Z,4.40
2023-03-19T16:14:00.113Z,1.45
2023-03-19T16:16:30.814Z,1.88
2023-03-19T16:18:58.428Z,1.83
2023-03-19T16:21:27.696Z,2.90
2023-03-19T16:24:20.157Z,1.70
2023-03-19T16:26:48.402Z,1.45
2023-03-19T16:29:29.797Z,3.45
2023-03-19T16:32:02.373Z,2.88
2023-03-19T16:34:34.829Z,1.77
2023-03-19T16:37:01.501Z,2.35
2023-03-19T16:39:31.072Z,1.25
2023-03-19T16:42:26.492Z,1.20
2023-03-19T16:44:56.114Z,2.28
2023-03-19T16:47:22.671Z,1.98
2023-03-19T16:49:49.253Z,2.13
2023-03-19T16:52:20.726Z,2.65
2023-03-19T16:54:47.262Z,1.77
2023-03-19T16:57:15.971Z,3.63
2023-03-19T16:59:43.262Z,2.83
2023-03-19T17:02:12.079Z,2.45
2023-03-19T17:04:38.569Z,4.13
2023-03-19T17:07:05.735Z,4.85
2023-03-19T17:09:32.458Z,4.32
2023-03-19T17:11:59.400Z,5.05
2023-03-19T17:14:25.876Z,3.78
2023-03-19T17:16:52.441Z,5.18
2023-03-19T17:19:24.452Z,4.65
2023-03-19T17:24:29.110Z,5.90
2023-03-19T17:26:58.174Z,4.00
2023-03-19T17:29:26.139Z,2.95
2023-03-19T17:31:54.883Z,3.85
2023-03-19T17:34:27.121Z,2.58
2023-03-19T17:36:56.275Z,3.08
2023-03-19T17:39:24.243Z,3.72
2023-03-19T17:41:51.267Z,2.38
2023-03-19T17:44:17.757Z,3.92
2023-03-19T17:46:50.463Z,2.85
2023-03-19T17:49:32.873Z,3.38
2023-03-19T17:51:59.865Z,6.00
2023-03-19T17:54:27.260Z,10.23
2023-03-19T17:56:54.928Z,10.10
2023-03-19T17:59:22.131Z,7.80
2023-03-19T18:01:48.735Z,4.85
2023-03-19T18:04:18.498Z,3.65
2023-03-19T18:06:50.664Z,3.17
2023-03-19T18:09:23.483Z,3.55
2023-03-19T18:11:50.114Z,5.07
2023-03-19T18:14:16.661Z,5.75
2023-03-19T18:16:43.774Z,3.95
2023-03-19T18:19:35.789Z,3.58
2023-03-19T18:22:06.016Z,4.78
2023-03-19T18:24:32.471Z,19.55
2023-03-19T18:26:58.910Z,10.88
2023-03-19T18:29:25.438Z,5.47
2023-03-19T18:31:52.211Z,4.35
2023-03-19T18:34:19.478Z,5.70
2023-03-19T18:36:46.024Z,5.45
2023-03-19T18:39:14.444Z,6.90
2023-03-19T18:41:41.455Z,8.18
2023-03-19T18:44:09.461Z,9.10
2023-03-19T18:46:38.387Z,8.82
2023-03-19T18:49:18.937Z,10.05
2023-03-19T18:52:00.702Z,7.88
2023-03-19T18:54:31.399Z,6.75
2023-03-19T18:57:00.106Z,6.18
2023-03-19T18:59:30.396Z,7.25
2023-03-19T19:02:03.508Z,10.18
2023-03-19T19:04:31.235Z,9.15
2023-03-19T19:06:58.012Z,16.17
2023-03-19T19:09:24.550Z,13.82
2023-03-19T19:11:51.154Z,14.10
2023-03-19T19:14:22.188Z,11.95
2023-03-19T19:16:49.356Z,13.43
2023-03-19T19:19:19.121Z,11.02
2023-03-19T19:21:46.080Z,9.60
2023-03-19T19:24:14.885Z,8.80
2023-03-19T19:26:46.833Z,5.20
2023-03-19T19:31:47.198Z,6.80
2023-03-19T19:34:16.742Z,3.40
2023-03-19T19:36:43.652Z,4.55
2023-03-19T19:39:10.509Z,6.70
2023-03-19T19:41:37.201Z,3.13
2023-03-19T19:44:04.202Z,3.40
2023-03-19T19:46:32.231Z,5.00
2023-03-19T19:48:59.225Z,3.13
2023-03-19T19:51:28.095Z,6.25
2023-03-19T19:53:54.631Z,3.53
2023-03-19T19:56:23.991Z,6.82
2023-03-19T19:58:53.162Z,13.60
2023-03-19T20:01:22.100Z,9.23
2023-03-19T20:03:50.126Z,13.65
2023-03-19T20:06:17.677Z,9.77
2023-03-19T20:08:45.360Z,6.80
2023-03-19T20:11:19.950Z,5.40
2023-03-19T20:13:52.447Z,4.72
2023-03-19T20:16:20.890Z,7.15
2023-03-19T20:18:48.345Z,6.00
2023-03-19T20:21:15.898Z,7.50
2023-03-19T20:23:44.496Z,7.18
2023-03-19T20:26:14.274Z,7.47
2023-03-19T20:28:41.913Z,7.95
2023-03-19T20:31:19.548Z,6.55
2023-03-19T20:33:46.130Z,7.88
2023-03-19T20:36:15.677Z,8.15
2023-03-19T20:38:42.553Z,6.47
2023-03-19T20:41:21.716Z,6.18
2023-03-19T20:43:49.136Z,5.63
2023-03-19T20:46:20.778Z,6.45
2023-03-19T20:48:49.113Z,7.20
2023-03-19T20:51:22.605Z,9.75
2023-03-19T20:53:51.238Z,7.18
2023-03-19T20:56:21.026Z,5.55
2023-03-19T20:58:47.702Z,7.25
2023-03-19T21:01:15.331Z,6.45
2023-03-19T21:03:42.312Z,7.10
2023-03-19T21:06:22.702Z,8.75
2023-03-19T21:08:58.561Z,4.47
2023-03-19T21:11:38.773Z,4.35
2023-03-19T21:14:09.203Z,4.75
2023-03-19T21:16:36.311Z,5.43
2023-03-19T21:19:03.087Z,7.25
2023-03-19T21:21:36.439Z,4.60
2023-03-19T21:24:09.314Z,4.63
2023-03-19T21:26:38.357Z,4.90
2023-03-19T21:29:11.026Z,3.63
2023-03-19T21:31:37.484Z,3.05
2023-03-19T21:34:03.985Z,4.43
2023-03-19T21:36:30.439Z,2.92
2023-03-19T21:38:58.929Z,3.15
2023-03-19T21:41:33.248Z,4.15
2023-03-19T21:44:05.661Z,3.75
2023-03-19T21:46:32.455Z,2.90
2023-03-19T21:49:02.451Z,3.20
2023-03-19T21:51:29.582Z,5.45
2023-03-19T21:53:56.407Z,5.05
2023-03-19T21:56:32.858Z,5.05
2023-03-19T21:59:09.695Z,4.43
2023-03-19T22:01:42.380Z,4.03
2023-03-19T22:04:12.320Z,4.38
2023-03-19T22:06:40.518Z,5.35
2023-03-19T22:09:07.030Z,5.40
2023-03-19T22:11:37.699Z,3.92
2023-03-19T22:14:11.126Z,4.63
2023-03-19T22:16:37.908Z,4.18
2023-03-19T22:19:04.768Z,5.20
2023-03-19T22:21:32.902Z,5.88
2023-03-19T22:24:02.226Z,4.15
2023-03-19T22:26:44.379Z,3.97
2023-03-19T22:31:45.322Z,3.45
2023-03-19T22:34:17.106Z,3.83
2023-03-19T22:36:44.272Z,3.90
2023-03-19T22:39:10.837Z,2.90
2023-03-19T22:41:40.939Z,4.70
2023-03-19T22:44:14.482Z,3.20
2023-03-19T22:46:44.580Z,3.80
2023-03-19T22:49:15.377Z,4.22
2023-03-19T22:51:41.918Z,3.10
2023-03-19T22:54:10.794Z,3.35
2023-03-19T22:56:37.756Z,3.25
2023-03-19T22:59:04.711Z,2.85
2023-03-19T23:01:43.384Z,4.47
2023-03-19T23:04:16.634Z,4.43
2023-03-19T23:06:43.196Z,3.88
2023-03-19T23:09:24.540Z,4.43
2023-03-19T23:11:51.608Z,7.63
2023-03-19T23:14:29.024Z,6.22
2023-03-19T23:19:28.057Z,4.88
2023-03-19T23:21:55.029Z,3.60
2023-03-19T23:24:30.897Z,3.33
2023-03-19T23:27:06.615Z,4.50
2023-03-19T23:29:43.525Z,4.75
2023-03-19T23:32:11.378Z,3.33
2023-03-19T23:34:53.619Z,4.15
2023-03-19T23:37:24.491Z,8.15
2023-03-19T23:39:54.116Z,5.35
2023-03-19T23:42:28.985Z,4.65
2023-03-19T23:44:59.496Z,5.70
2023-03-19T23:47:32.214Z,5.13
2023-03-19T23:49:59.262Z,6.70
2023-03-19T23:52:26.089Z,5.35
2023-03-19T23:54:52.631Z,6.60
2023-03-19T23:57:21.497Z,5.45
2023-03-19T23:59:51.036Z,8.18
